Kezdőlap
METAR-TAF:

METAR-TAF

Repülőterek :

Fort Madison Municipal Airport

Fort Madison, Iowa, Amerikai Egyesült Államok

földrajzi szélesség: 40-40N, földrajzi hosszúság: 091-20W, magasság: 221 m

Jelenlegi meteorológiai megfigyelések

A jelentés 8 perccel ezelõtt készült, 18:55 UTC
Szélcsend
Hőmérséklet -7°C
Páratartalom 73%
Légköri nyomás 1020 hPa
Látótávolság: 16.1 km
Szakadozott felhőzet 4000 lábon
Borult 4700 lábon

METAR: KFSW 151855Z AUTO 00000KT 10SM BKN040 OVC047 M07/M11 A3011 RMK AO2

Idő: 13:03 (19:03 UTC)


TAF: hiányzik

Meteorológiai megfigyelések és előrejelzések több, mint 4000 repülőtéren (METAR és TAF jelentéseket).

A térképen piros és sárga pontok jelzik az elérhető meteorológiai állomásokat.

Mozgassa az egeret a pont fölött, hogy megjelenjen az állomás neve.

Azután kattintson az időjárási megfigyelések és előrejelzések megtekintéséhez.

A térkép megváltoztatása: kattintson a fekete keresztel jelölt zöld gombra ráközelítéshez, a vonallal jelölt zöld gombra távolításhoz, vagy a zöld nyilakra a szomszédos térképek eléréséhez.


METAR-TAF: